sensor_id;sensor_type;location;lat;lon;timestamp;P1;durP1;ratioP1;P2;durP2;ratioP2
57263;SDS011;43113;53.124;6.092;2022-12-01T00:00:51;34.03;;;12.20;;
57263;SDS011;43113;53.124;6.092;2022-12-01T00:03:18;33.92;;;12.93;;
57263;SDS011;43113;53.124;6.092;2022-12-01T00:05:45;31.58;;;12.90;;
57263;SDS011;43113;53.124;6.092;2022-12-01T00:08:11;31.70;;;12.13;;
57263;SDS011;43113;53.124;6.092;2022-12-01T00:10:36;29.48;;;11.68;;
57263;SDS011;43113;53.124;6.092;2022-12-01T00:13:03;30.92;;;12.45;;
57263;SDS011;43113;53.124;6.092;2022-12-01T00:15:31;32.95;;;11.43;;
57263;SDS011;43113;53.124;6.092;2022-12-01T00:18:01;39.92;;;15.05;;
57263;SDS011;43113;53.124;6.092;2022-12-01T00:20:29;32.65;;;13.63;;
57263;SDS011;43113;53.124;6.092;2022-12-01T00:22:57;39.47;;;14.55;;
57263;SDS011;43113;53.124;6.092;2022-12-01T00:25:24;37.38;;;14.63;;
57263;SDS011;43113;53.124;6.092;2022-12-01T00:27:50;35.78;;;12.75;;
57263;SDS011;43113;53.124;6.092;2022-12-01T00:30:17;37.97;;;12.65;;
57263;SDS011;43113;53.124;6.092;2022-12-01T00:32:45;34.33;;;12.95;;
57263;SDS011;43113;53.124;6.092;2022-12-01T00:35:11;39.42;;;13.68;;
57263;SDS011;43113;53.124;6.092;2022-12-01T00:37:38;36.53;;;12.93;;
57263;SDS011;43113;53.124;6.092;2022-12-01T00:40:04;34.58;;;11.82;;
57263;SDS011;43113;53.124;6.092;2022-12-01T00:42:30;31.27;;;10.50;;
57263;SDS011;43113;53.124;6.092;2022-12-01T00:44:56;33.40;;;13.18;;
57263;SDS011;43113;53.124;6.092;2022-12-01T00:47:22;33.10;;;11.85;;
57263;SDS011;43113;53.124;6.092;2022-12-01T00:49:48;36.22;;;11.80;;
57263;SDS011;43113;53.124;6.092;2022-12-01T00:52:14;35.75;;;13.02;;
57263;SDS011;43113;53.124;6.092;2022-12-01T00:54:43;34.33;;;12.80;;
57263;SDS011;43113;53.124;6.092;2022-12-01T00:57:09;32.50;;;14.20;;
57263;SDS011;43113;53.124;6.092;2022-12-01T00:59:35;36.47;;;13.10;;
57263;SDS011;43113;53.124;6.092;2022-12-01T01:02:02;30.98;;;11.95;;
57263;SDS011;43113;53.124;6.092;2022-12-01T01:04:30;33.80;;;11.90;;
57263;SDS011;43113;53.124;6.092;2022-12-01T01:06:57;28.27;;;11.38;;
57263;SDS011;43113;53.124;6.092;2022-12-01T01:09:24;32.22;;;11.57;;
57263;SDS011;43113;53.124;6.092;2022-12-01T01:11:50;34.45;;;12.65;;
57263;SDS011;43113;53.124;6.092;2022-12-01T01:14:17;35.60;;;13.35;;
57263;SDS011;43113;53.124;6.092;2022-12-01T01:16:43;34.05;;;12.50;;
57263;SDS011;43113;53.124;6.092;2022-12-01T01:19:08;32.25;;;11.52;;
57263;SDS011;43113;53.124;6.092;2022-12-01T01:21:34;29.88;;;11.75;;
57263;SDS011;43113;53.124;6.092;2022-12-01T01:24:00;38.05;;;12.27;;
57263;SDS011;43113;53.124;6.092;2022-12-01T01:26:27;33.55;;;11.77;;
57263;SDS011;43113;53.124;6.092;2022-12-01T01:28:55;31.63;;;12.75;;
57263;SDS011;43113;53.124;6.092;2022-12-01T01:31:25;31.27;;;11.85;;
57263;SDS011;43113;53.124;6.092;2022-12-01T01:33:53;32.45;;;11.43;;
57263;SDS011;43113;53.124;6.092;2022-12-01T01:36:20;30.23;;;12.32;;
57263;SDS011;43113;53.124;6.092;2022-12-01T01:38:46;30.92;;;12.60;;
57263;SDS011;43113;53.124;6.092;2022-12-01T01:41:15;37.13;;;13.45;;
57263;SDS011;43113;53.124;6.092;2022-12-01T01:43:46;33.15;;;11.35;;
57263;SDS011;43113;53.124;6.092;2022-12-01T01:46:19;29.30;;;11.82;;
57263;SDS011;43113;53.124;6.092;2022-12-01T01:51:16;33.50;;;13.45;;
57263;SDS011;43113;53.124;6.092;2022-12-01T01:53:46;30.10;;;12.13;;
57263;SDS011;43113;53.124;6.092;2022-12-01T01:56:13;26.08;;;11.02;;
57263;SDS011;43113;53.124;6.092;2022-12-01T01:58:39;35.90;;;11.55;;
57263;SDS011;43113;53.124;6.092;2022-12-01T02:01:06;27.90;;;11.30;;
57263;SDS011;43113;53.124;6.092;2022-12-01T02:03:32;33.08;;;12.60;;
57263;SDS011;43113;53.124;6.092;2022-12-01T02:06:01;30.65;;;11.85;;
57263;SDS011;43113;53.124;6.092;2022-12-01T02:08:26;32.47;;;12.05;;
57263;SDS011;43113;53.124;6.092;2022-12-01T02:14:09;29.15;;;10.77;;
57263;SDS011;43113;53.124;6.092;2022-12-01T02:38:30;39.38;;;13.95;;
57263;SDS011;43113;53.124;6.092;2022-12-01T02:41:08;36.40;;;13.82;;
57263;SDS011;43113;53.124;6.092;2022-12-01T02:43:52;33.63;;;14.75;;
57263;SDS011;43113;53.124;6.092;2022-12-01T02:48:58;42.88;;;16.60;;
57263;SDS011;43113;53.124;6.092;2022-12-01T02:51:31;39.53;;;14.15;;
57263;SDS011;43113;53.124;6.092;2022-12-01T02:54:00;36.65;;;13.73;;
57263;SDS011;43113;53.124;6.092;2022-12-01T02:56:27;40.42;;;15.90;;
57263;SDS011;43113;53.124;6.092;2022-12-01T02:58:53;36.97;;;13.15;;
57263;SDS011;43113;53.124;6.092;2022-12-01T03:07:20;31.15;;;12.18;;
57263;SDS011;43113;53.124;6.092;2022-12-01T03:12:36;31.98;;;12.23;;
57263;SDS011;43113;53.124;6.092;2022-12-01T03:23:26;31.50;;;12.32;;
57263;SDS011;43113;53.124;6.092;2022-12-01T03:25:55;35.08;;;11.70;;
57263;SDS011;43113;53.124;6.092;2022-12-01T03:28:26;35.40;;;12.48;;
57263;SDS011;43113;53.124;6.092;2022-12-01T03:30:58;34.35;;;12.50;;
57263;SDS011;43113;53.124;6.092;2022-12-01T03:33:32;35.92;;;11.85;;
57263;SDS011;43113;53.124;6.092;2022-12-01T03:36:08;31.73;;;12.03;;
57263;SDS011;43113;53.124;6.092;2022-12-01T03:38:40;31.00;;;12.88;;
57263;SDS011;43113;53.124;6.092;2022-12-01T03:41:12;30.85;;;12.18;;
57263;SDS011;43113;53.124;6.092;2022-12-01T03:43:44;36.72;;;12.48;;
57263;SDS011;43113;53.124;6.092;2022-12-01T03:46:21;30.73;;;11.98;;
57263;SDS011;43113;53.124;6.092;2022-12-01T03:48:55;31.55;;;12.57;;
57263;SDS011;43113;53.124;6.092;2022-12-01T03:56:51;32.10;;;13.00;;
57263;SDS011;43113;53.124;6.092;2022-12-01T03:59:20;27.90;;;11.15;;
57263;SDS011;43113;53.124;6.092;2022-12-01T04:01:48;33.10;;;13.85;;
57263;SDS011;43113;53.124;6.092;2022-12-01T04:04:14;31.80;;;12.40;;
57263;SDS011;43113;53.124;6.092;2022-12-01T04:06:41;31.92;;;12.30;;
57263;SDS011;43113;53.124;6.092;2022-12-01T04:09:10;29.92;;;11.10;;
57263;SDS011;43113;53.124;6.092;2022-12-01T04:11:36;32.00;;;12.15;;
57263;SDS011;43113;53.124;6.092;2022-12-01T04:14:20;28.77;;;11.82;;
57263;SDS011;43113;53.124;6.092;2022-12-01T04:16:46;37.53;;;13.20;;
57263;SDS011;43113;53.124;6.092;2022-12-01T04:19:12;29.63;;;12.05;;
57263;SDS011;43113;53.124;6.092;2022-12-01T04:21:38;26.08;;;10.70;;
57263;SDS011;43113;53.124;6.092;2022-12-01T04:24:04;33.53;;;13.40;;
57263;SDS011;43113;53.124;6.092;2022-12-01T04:26:34;33.15;;;11.98;;
57263;SDS011;43113;53.124;6.092;2022-12-01T04:29:02;31.20;;;13.35;;
57263;SDS011;43113;53.124;6.092;2022-12-01T04:31:30;31.70;;;11.90;;
57263;SDS011;43113;53.124;6.092;2022-12-01T04:33:56;36.80;;;13.65;;
57263;SDS011;43113;53.124;6.092;2022-12-01T04:36:24;28.02;;;12.02;;
57263;SDS011;43113;53.124;6.092;2022-12-01T04:38:50;33.00;;;13.63;;
57263;SDS011;43113;53.124;6.092;2022-12-01T04:41:16;34.38;;;12.88;;
57263;SDS011;43113;53.124;6.092;2022-12-01T04:43:42;37.00;;;13.15;;
57263;SDS011;43113;53.124;6.092;2022-12-01T04:46:08;31.98;;;12.50;;
57263;SDS011;43113;53.124;6.092;2022-12-01T04:48:35;36.75;;;12.73;;
57263;SDS011;43113;53.124;6.092;2022-12-01T04:51:02;34.28;;;12.57;;
57263;SDS011;43113;53.124;6.092;2022-12-01T04:53:29;33.40;;;11.50;;
57263;SDS011;43113;53.124;6.092;2022-12-01T04:55:55;32.95;;;13.38;;
57263;SDS011;43113;53.124;6.092;2022-12-01T04:58:21;31.00;;;12.57;;
57263;SDS011;43113;53.124;6.092;2022-12-01T05:00:46;24.35;;;10.20;;
57263;SDS011;43113;53.124;6.092;2022-12-01T05:03:12;29.90;;;11.73;;
57263;SDS011;43113;53.124;6.092;2022-12-01T05:05:38;33.50;;;13.35;;
57263;SDS011;43113;53.124;6.092;2022-12-01T05:08:03;32.92;;;12.73;;
57263;SDS011;43113;53.124;6.092;2022-12-01T05:10:29;27.52;;;11.80;;
57263;SDS011;43113;53.124;6.092;2022-12-01T05:12:55;33.20;;;12.73;;
57263;SDS011;43113;53.124;6.092;2022-12-01T05:15:22;32.45;;;11.65;;
57263;SDS011;43113;53.124;6.092;2022-12-01T05:17:48;33.45;;;12.35;;
57263;SDS011;43113;53.124;6.092;2022-12-01T05:20:18;31.98;;;12.43;;
57263;SDS011;43113;53.124;6.092;2022-12-01T05:23:04;33.42;;;12.65;;
57263;SDS011;43113;53.124;6.092;2022-12-01T05:25:30;32.55;;;11.18;;
57263;SDS011;43113;53.124;6.092;2022-12-01T05:27:55;36.30;;;11.85;;
57263;SDS011;43113;53.124;6.092;2022-12-01T05:30:21;32.40;;;11.98;;
57263;SDS011;43113;53.124;6.092;2022-12-01T05:32:47;35.38;;;13.00;;
57263;SDS011;43113;53.124;6.092;2022-12-01T05:35:13;35.45;;;13.40;;
57263;SDS011;43113;53.124;6.092;2022-12-01T05:37:38;30.35;;;12.75;;
57263;SDS011;43113;53.124;6.092;2022-12-01T05:40:04;32.00;;;12.57;;
57263;SDS011;43113;53.124;6.092;2022-12-01T05:42:30;32.95;;;12.63;;
57263;SDS011;43113;53.124;6.092;2022-12-01T05:44:56;30.35;;;13.13;;
57263;SDS011;43113;53.124;6.092;2022-12-01T05:47:22;34.08;;;13.95;;
57263;SDS011;43113;53.124;6.092;2022-12-01T05:49:48;35.97;;;15.52;;
57263;SDS011;43113;53.124;6.092;2022-12-01T05:52:14;43.67;;;13.23;;
57263;SDS011;43113;53.124;6.092;2022-12-01T05:54:40;31.52;;;12.75;;
57263;SDS011;43113;53.124;6.092;2022-12-01T05:57:05;34.28;;;13.82;;
57263;SDS011;43113;53.124;6.092;2022-12-01T05:59:31;30.02;;;13.50;;
57263;SDS011;43113;53.124;6.092;2022-12-01T06:01:57;32.53;;;12.60;;
57263;SDS011;43113;53.124;6.092;2022-12-01T06:04:22;32.88;;;12.65;;
57263;SDS011;43113;53.124;6.092;2022-12-01T06:06:48;36.25;;;13.18;;
57263;SDS011;43113;53.124;6.092;2022-12-01T06:09:14;32.85;;;11.95;;
57263;SDS011;43113;53.124;6.092;2022-12-01T06:11:40;29.60;;;12.23;;
57263;SDS011;43113;53.124;6.092;2022-12-01T06:14:06;28.63;;;11.82;;
57263;SDS011;43113;53.124;6.092;2022-12-01T06:16:32;29.33;;;11.25;;
57263;SDS011;43113;53.124;6.092;2022-12-01T06:18:57;34.25;;;12.43;;
57263;SDS011;43113;53.124;6.092;2022-12-01T06:21:23;32.92;;;12.45;;
57263;SDS011;43113;53.124;6.092;2022-12-01T06:23:49;27.63;;;11.35;;
57263;SDS011;43113;53.124;6.092;2022-12-01T06:26:14;30.67;;;12.43;;
57263;SDS011;43113;53.124;6.092;2022-12-01T06:28:40;40.47;;;12.68;;
57263;SDS011;43113;53.124;6.092;2022-12-01T06:31:06;46.08;;;13.85;;
57263;SDS011;43113;53.124;6.092;2022-12-01T06:33:32;41.05;;;13.85;;
57263;SDS011;43113;53.124;6.092;2022-12-01T06:36:01;32.30;;;11.82;;
57263;SDS011;43113;53.124;6.092;2022-12-01T06:38:29;34.38;;;12.05;;
57263;SDS011;43113;53.124;6.092;2022-12-01T06:40:55;30.15;;;11.75;;
57263;SDS011;43113;53.124;6.092;2022-12-01T06:43:21;29.98;;;10.95;;
57263;SDS011;43113;53.124;6.092;2022-12-01T06:45:47;25.05;;;10.07;;
57263;SDS011;43113;53.124;6.092;2022-12-01T06:48:13;27.45;;;10.45;;
57263;SDS011;43113;53.124;6.092;2022-12-01T06:50:39;23.17;;;9.32;;
57263;SDS011;43113;53.124;6.092;2022-12-01T06:53:04;23.48;;;9.50;;
57263;SDS011;43113;53.124;6.092;2022-12-01T06:55:30;25.35;;;9.85;;
57263;SDS011;43113;53.124;6.092;2022-12-01T06:57:59;26.63;;;10.25;;
57263;SDS011;43113;53.124;6.092;2022-12-01T07:00:25;23.25;;;9.50;;
57263;SDS011;43113;53.124;6.092;2022-12-01T07:02:51;24.52;;;8.60;;
57263;SDS011;43113;53.124;6.092;2022-12-01T07:05:17;21.63;;;8.00;;
57263;SDS011;43113;53.124;6.092;2022-12-01T07:07:42;23.40;;;8.75;;
57263;SDS011;43113;53.124;6.092;2022-12-01T07:10:09;21.73;;;8.85;;
57263;SDS011;43113;53.124;6.092;2022-12-01T07:12:36;23.73;;;10.43;;
57263;SDS011;43113;53.124;6.092;2022-12-01T07:15:02;21.80;;;8.75;;
57263;SDS011;43113;53.124;6.092;2022-12-01T07:17:29;21.08;;;9.65;;
57263;SDS011;43113;53.124;6.092;2022-12-01T07:19:55;21.30;;;8.15;;
57263;SDS011;43113;53.124;6.092;2022-12-01T07:22:21;20.27;;;8.40;;
57263;SDS011;43113;53.124;6.092;2022-12-01T07:24:47;19.98;;;7.78;;
57263;SDS011;43113;53.124;6.092;2022-12-01T07:27:12;22.40;;;8.48;;
57263;SDS011;43113;53.124;6.092;2022-12-01T07:29:38;18.17;;;8.18;;
57263;SDS011;43113;53.124;6.092;2022-12-01T07:32:04;21.02;;;8.45;;
57263;SDS011;43113;53.124;6.092;2022-12-01T07:34:30;21.98;;;8.02;;
57263;SDS011;43113;53.124;6.092;2022-12-01T07:36:55;24.13;;;8.82;;
57263;SDS011;43113;53.124;6.092;2022-12-01T07:39:21;26.98;;;8.32;;
57263;SDS011;43113;53.124;6.092;2022-12-01T07:41:47;28.13;;;10.43;;
57263;SDS011;43113;53.124;6.092;2022-12-01T07:44:12;32.95;;;11.27;;
57263;SDS011;43113;53.124;6.092;2022-12-01T07:46:38;25.17;;;10.23;;
57263;SDS011;43113;53.124;6.092;2022-12-01T07:49:05;24.10;;;8.77;;
57263;SDS011;43113;53.124;6.092;2022-12-01T07:51:32;24.88;;;8.90;;
57263;SDS011;43113;53.124;6.092;2022-12-01T07:54:02;27.95;;;9.60;;
57263;SDS011;43113;53.124;6.092;2022-12-01T07:56:29;25.67;;;10.95;;
57263;SDS011;43113;53.124;6.092;2022-12-01T07:58:55;30.77;;;10.25;;
57263;SDS011;43113;53.124;6.092;2022-12-01T08:01:22;29.60;;;10.70;;
57263;SDS011;43113;53.124;6.092;2022-12-01T08:03:53;30.77;;;11.88;;
57263;SDS011;43113;53.124;6.092;2022-12-01T08:06:20;26.70;;;10.90;;
57263;SDS011;43113;53.124;6.092;2022-12-01T08:08:47;31.08;;;11.10;;
57263;SDS011;43113;53.124;6.092;2022-12-01T08:11:20;31.15;;;10.15;;
57263;SDS011;43113;53.124;6.092;2022-12-01T08:13:48;25.50;;;8.48;;
57263;SDS011;43113;53.124;6.092;2022-12-01T08:16:15;20.83;;;8.93;;
57263;SDS011;43113;53.124;6.092;2022-12-01T08:18:44;20.00;;;8.15;;
57263;SDS011;43113;53.124;6.092;2022-12-01T08:21:11;25.95;;;10.10;;
57263;SDS011;43113;53.124;6.092;2022-12-01T08:23:38;37.70;;;12.40;;
57263;SDS011;43113;53.124;6.092;2022-12-01T08:26:07;29.27;;;11.80;;
57263;SDS011;43113;53.124;6.092;2022-12-01T08:28:36;23.52;;;10.20;;
57263;SDS011;43113;53.124;6.092;2022-12-01T08:31:13;27.27;;;10.40;;
57263;SDS011;43113;53.124;6.092;2022-12-01T08:33:39;28.70;;;11.55;;
57263;SDS011;43113;53.124;6.092;2022-12-01T08:36:05;27.50;;;11.35;;
57263;SDS011;43113;53.124;6.092;2022-12-01T08:38:31;22.63;;;10.27;;
57263;SDS011;43113;53.124;6.092;2022-12-01T08:40:58;21.35;;;9.68;;
57263;SDS011;43113;53.124;6.092;2022-12-01T08:43:33;17.73;;;8.18;;
57263;SDS011;43113;53.124;6.092;2022-12-01T08:46:06;24.92;;;9.77;;
57263;SDS011;43113;53.124;6.092;2022-12-01T08:48:33;20.75;;;8.63;;
57263;SDS011;43113;53.124;6.092;2022-12-01T08:51:09;22.58;;;9.48;;
57263;SDS011;43113;53.124;6.092;2022-12-01T08:53:39;30.40;;;10.80;;
57263;SDS011;43113;53.124;6.092;2022-12-01T08:56:08;18.90;;;9.38;;
57263;SDS011;43113;53.124;6.092;2022-12-01T08:58:39;20.27;;;9.50;;
57263;SDS011;43113;53.124;6.092;2022-12-01T09:01:06;23.13;;;9.65;;
57263;SDS011;43113;53.124;6.092;2022-12-01T09:03:35;23.95;;;10.50;;
57263;SDS011;43113;53.124;6.092;2022-12-01T09:06:02;13.00;;;7.20;;
57263;SDS011;43113;53.124;6.092;2022-12-01T09:08:29;17.33;;;7.30;;
57263;SDS011;43113;53.124;6.092;2022-12-01T09:10:59;16.42;;;8.07;;
57263;SDS011;43113;53.124;6.092;2022-12-01T09:13:27;18.55;;;7.80;;
57263;SDS011;43113;53.124;6.092;2022-12-01T09:16:02;16.35;;;7.10;;
57263;SDS011;43113;53.124;6.092;2022-12-01T09:18:29;14.20;;;6.38;;
57263;SDS011;43113;53.124;6.092;2022-12-01T09:20:55;15.40;;;6.78;;
57263;SDS011;43113;53.124;6.092;2022-12-01T09:23:22;14.82;;;6.60;;
57263;SDS011;43113;53.124;6.092;2022-12-01T09:25:48;14.38;;;6.22;;
57263;SDS011;43113;53.124;6.092;2022-12-01T09:28:15;14.60;;;5.93;;
57263;SDS011;43113;53.124;6.092;2022-12-01T09:30:42;13.27;;;6.35;;
57263;SDS011;43113;53.124;6.092;2022-12-01T09:33:09;12.35;;;5.30;;
57263;SDS011;43113;53.124;6.092;2022-12-01T09:35:34;12.25;;;5.55;;
57263;SDS011;43113;53.124;6.092;2022-12-01T09:38:00;13.73;;;5.57;;
57263;SDS011;43113;53.124;6.092;2022-12-01T09:40:30;14.45;;;6.65;;
57263;SDS011;43113;53.124;6.092;2022-12-01T09:42:59;11.48;;;5.40;;
57263;SDS011;43113;53.124;6.092;2022-12-01T09:45:29;10.88;;;5.13;;
57263;SDS011;43113;53.124;6.092;2022-12-01T09:47:58;14.13;;;5.82;;
57263;SDS011;43113;53.124;6.092;2022-12-01T09:50:26;14.60;;;5.80;;
57263;SDS011;43113;53.124;6.092;2022-12-01T09:53:01;12.73;;;5.80;;
57263;SDS011;43113;53.124;6.092;2022-12-01T09:55:31;10.40;;;5.50;;
57263;SDS011;43113;53.124;6.092;2022-12-01T09:57:59;10.88;;;5.93;;
57263;SDS011;43113;53.124;6.092;2022-12-01T10:00:28;14.05;;;5.78;;
57263;SDS011;43113;53.124;6.092;2022-12-01T10:05:51;13.27;;;5.45;;
57263;SDS011;43113;53.124;6.092;2022-12-01T10:08:28;13.18;;;6.22;;
57263;SDS011;43113;53.124;6.092;2022-12-01T10:11:06;10.95;;;5.50;;
57263;SDS011;43113;53.124;6.092;2022-12-01T10:13:38;11.57;;;5.80;;
57263;SDS011;43113;53.124;6.092;2022-12-01T10:16:07;11.88;;;5.65;;
57263;SDS011;43113;53.124;6.092;2022-12-01T10:27:26;14.45;;;5.30;;
57263;SDS011;43113;53.124;6.092;2022-12-01T10:30:15;11.45;;;5.85;;
57263;SDS011;43113;53.124;6.092;2022-12-01T10:32:55;16.95;;;5.60;;
57263;SDS011;43113;53.124;6.092;2022-12-01T10:35:37;14.75;;;5.03;;
57263;SDS011;43113;53.124;6.092;2022-12-01T10:38:05;11.68;;;5.18;;
57263;SDS011;43113;53.124;6.092;2022-12-01T10:40:37;10.63;;;4.80;;
57263;SDS011;43113;53.124;6.092;2022-12-01T10:43:04;11.05;;;4.72;;
57263;SDS011;43113;53.124;6.092;2022-12-01T10:45:33;10.10;;;5.15;;
57263;SDS011;43113;53.124;6.092;2022-12-01T10:48:09;11.00;;;4.63;;
57263;SDS011;43113;53.124;6.092;2022-12-01T10:50:47;13.38;;;5.30;;
57263;SDS011;43113;53.124;6.092;2022-12-01T10:55:48;11.70;;;4.75;;
57263;SDS011;43113;53.124;6.092;2022-12-01T10:58:20;9.43;;;5.00;;
57263;SDS011;43113;53.124;6.092;2022-12-01T11:00:54;8.95;;;3.90;;
57263;SDS011;43113;53.124;6.092;2022-12-01T11:03:22;9.75;;;4.57;;
57263;SDS011;43113;53.124;6.092;2022-12-01T11:05:55;10.45;;;5.15;;
57263;SDS011;43113;53.124;6.092;2022-12-01T11:09:14;12.27;;;4.32;;
57263;SDS011;43113;53.124;6.092;2022-12-01T11:11:28;10.23;;;4.80;;
57263;SDS011;43113;53.124;6.092;2022-12-01T11:13:54;8.15;;;4.28;;
57263;SDS011;43113;53.124;6.092;2022-12-01T11:19:28;8.05;;;4.25;;
57263;SDS011;43113;53.124;6.092;2022-12-01T11:21:57;9.63;;;4.50;;
57263;SDS011;43113;53.124;6.092;2022-12-01T11:24:29;9.18;;;4.40;;
57263;SDS011;43113;53.124;6.092;2022-12-01T11:27:19;7.60;;;3.90;;
57263;SDS011;43113;53.124;6.092;2022-12-01T11:29:49;9.38;;;4.18;;
57263;SDS011;43113;53.124;6.092;2022-12-01T11:32:18;8.90;;;4.95;;
57263;SDS011;43113;53.124;6.092;2022-12-01T11:34:54;11.93;;;5.22;;
57263;SDS011;43113;53.124;6.092;2022-12-01T11:37:54;9.73;;;4.57;;
57263;SDS011;43113;53.124;6.092;2022-12-01T11:40:25;10.13;;;4.40;;
57263;SDS011;43113;53.124;6.092;2022-12-01T11:43:03;9.25;;;3.95;;
57263;SDS011;43113;53.124;6.092;2022-12-01T11:45:40;10.23;;;4.75;;
57263;SDS011;43113;53.124;6.092;2022-12-01T11:50:40;13.23;;;4.60;;
57263;SDS011;43113;53.124;6.092;2022-12-01T11:55:52;10.27;;;3.90;;
57263;SDS011;43113;53.124;6.092;2022-12-01T11:58:38;12.90;;;5.00;;
57263;SDS011;43113;53.124;6.092;2022-12-01T12:01:11;11.52;;;5.47;;
57263;SDS011;43113;53.124;6.092;2022-12-01T12:04:07;10.73;;;4.93;;
57263;SDS011;43113;53.124;6.092;2022-12-01T12:09:21;9.55;;;4.78;;
57263;SDS011;43113;53.124;6.092;2022-12-01T12:12:21;9.82;;;3.85;;
57263;SDS011;43113;53.124;6.092;2022-12-01T12:23:35;11.88;;;5.55;;
57263;SDS011;43113;53.124;6.092;2022-12-01T12:29:03;8.90;;;4.65;;
57263;SDS011;43113;53.124;6.092;2022-12-01T12:37:36;11.02;;;5.47;;
57263;SDS011;43113;53.124;6.092;2022-12-01T12:40:21;8.57;;;4.65;;
57263;SDS011;43113;53.124;6.092;2022-12-01T12:42:58;10.77;;;4.95;;
57263;SDS011;43113;53.124;6.092;2022-12-01T12:51:27;12.10;;;5.32;;
57263;SDS011;43113;53.124;6.092;2022-12-01T12:54:09;8.68;;;4.82;;
57263;SDS011;43113;53.124;6.092;2022-12-01T12:56:39;11.35;;;4.28;;
57263;SDS011;43113;53.124;6.092;2022-12-01T12:59:21;9.82;;;4.70;;
57263;SDS011;43113;53.124;6.092;2022-12-01T13:01:56;10.80;;;5.13;;
57263;SDS011;43113;53.124;6.092;2022-12-01T13:04:31;10.60;;;5.72;;
57263;SDS011;43113;53.124;6.092;2022-12-01T13:07:19;9.27;;;4.82;;
57263;SDS011;43113;53.124;6.092;2022-12-01T13:10:33;10.95;;;5.35;;
57263;SDS011;43113;53.124;6.092;2022-12-01T13:15:58;14.18;;;4.60;;
57263;SDS011;43113;53.124;6.092;2022-12-01T13:18:38;10.65;;;5.15;;
57263;SDS011;43113;53.124;6.092;2022-12-01T13:21:10;10.68;;;4.60;;
57263;SDS011;43113;53.124;6.092;2022-12-01T13:23:40;9.48;;;4.75;;
57263;SDS011;43113;53.124;6.092;2022-12-01T13:26:07;11.18;;;4.90;;
57263;SDS011;43113;53.124;6.092;2022-12-01T13:28:36;8.73;;;4.57;;
57263;SDS011;43113;53.124;6.092;2022-12-01T13:31:10;8.07;;;4.22;;
57263;SDS011;43113;53.124;6.092;2022-12-01T13:33:52;8.40;;;3.97;;
57263;SDS011;43113;53.124;6.092;2022-12-01T13:36:29;8.90;;;4.43;;
57263;SDS011;43113;53.124;6.092;2022-12-01T13:38:57;8.85;;;3.80;;
57263;SDS011;43113;53.124;6.092;2022-12-01T13:41:36;9.63;;;4.13;;
57263;SDS011;43113;53.124;6.092;2022-12-01T13:46:51;8.03;;;4.33;;
57263;SDS011;43113;53.124;6.092;2022-12-01T13:49:33;10.32;;;4.43;;
57263;SDS011;43113;53.124;6.092;2022-12-01T14:00:37;11.18;;;4.75;;
57263;SDS011;43113;53.124;6.092;2022-12-01T14:08:22;8.57;;;4.18;;
57263;SDS011;43113;53.124;6.092;2022-12-01T14:11:00;8.35;;;4.03;;
57263;SDS011;43113;53.124;6.092;2022-12-01T14:13:41;11.75;;;4.30;;
57263;SDS011;43113;53.124;6.092;2022-12-01T14:16:10;12.35;;;5.55;;
57263;SDS011;43113;53.124;6.092;2022-12-01T14:18:38;10.95;;;5.45;;
57263;SDS011;43113;53.124;6.092;2022-12-01T14:21:08;9.25;;;4.60;;
57263;SDS011;43113;53.124;6.092;2022-12-01T14:23:57;11.35;;;5.57;;
57263;SDS011;43113;53.124;6.092;2022-12-01T14:26:25;13.18;;;5.60;;
57263;SDS011;43113;53.124;6.092;2022-12-01T14:36:39;15.48;;;6.93;;
57263;SDS011;43113;53.124;6.092;2022-12-01T14:42:04;18.50;;;7.55;;
57263;SDS011;43113;53.124;6.092;2022-12-01T14:45:17;21.33;;;8.18;;
57263;SDS011;43113;53.124;6.092;2022-12-01T14:48:01;17.30;;;8.27;;
57263;SDS011;43113;53.124;6.092;2022-12-01T14:50:31;20.90;;;8.60;;
57263;SDS011;43113;53.124;6.092;2022-12-01T14:53:03;21.50;;;9.95;;
57263;SDS011;43113;53.124;6.092;2022-12-01T14:55:46;21.35;;;9.25;;
57263;SDS011;43113;53.124;6.092;2022-12-01T14:58:22;25.17;;;10.88;;
57263;SDS011;43113;53.124;6.092;2022-12-01T15:00:58;24.20;;;10.52;;
57263;SDS011;43113;53.124;6.092;2022-12-01T15:03:44;24.63;;;10.32;;
57263;SDS011;43113;53.124;6.092;2022-12-01T15:06:16;26.45;;;11.73;;
57263;SDS011;43113;53.124;6.092;2022-12-01T15:08:44;24.80;;;9.55;;
57263;SDS011;43113;53.124;6.092;2022-12-01T15:11:28;25.52;;;10.35;;
57263;SDS011;43113;53.124;6.092;2022-12-01T15:13:54;23.60;;;9.57;;
57263;SDS011;43113;53.124;6.092;2022-12-01T15:16:25;24.40;;;10.27;;
57263;SDS011;43113;53.124;6.092;2022-12-01T15:18:54;24.63;;;11.05;;
57263;SDS011;43113;53.124;6.092;2022-12-01T15:21:21;32.08;;;10.57;;
57263;SDS011;43113;53.124;6.092;2022-12-01T15:23:56;28.70;;;10.88;;
57263;SDS011;43113;53.124;6.092;2022-12-01T15:26:25;27.42;;;11.55;;
57263;SDS011;43113;53.124;6.092;2022-12-01T15:29:17;32.30;;;12.55;;
57263;SDS011;43113;53.124;6.092;2022-12-01T15:31:47;29.08;;;12.43;;
57263;SDS011;43113;53.124;6.092;2022-12-01T15:34:19;28.08;;;11.65;;
57263;SDS011;43113;53.124;6.092;2022-12-01T15:36:52;27.27;;;11.07;;
57263;SDS011;43113;53.124;6.092;2022-12-01T15:39:20;27.40;;;12.07;;
57263;SDS011;43113;53.124;6.092;2022-12-01T15:41:58;26.48;;;12.60;;
57263;SDS011;43113;53.124;6.092;2022-12-01T15:44:26;27.73;;;12.13;;
57263;SDS011;43113;53.124;6.092;2022-12-01T15:46:57;29.70;;;11.98;;
57263;SDS011;43113;53.124;6.092;2022-12-01T15:49:29;32.50;;;12.32;;
57263;SDS011;43113;53.124;6.092;2022-12-01T15:52:07;30.00;;;13.20;;
57263;SDS011;43113;53.124;6.092;2022-12-01T15:54:35;31.25;;;10.55;;
57263;SDS011;43113;53.124;6.092;2022-12-01T15:57:02;24.25;;;9.63;;
57263;SDS011;43113;53.124;6.092;2022-12-01T15:59:37;22.38;;;9.52;;
57263;SDS011;43113;53.124;6.092;2022-12-01T16:02:27;27.45;;;11.65;;
57263;SDS011;43113;53.124;6.092;2022-12-01T16:05:00;25.30;;;12.05;;
57263;SDS011;43113;53.124;6.092;2022-12-01T16:07:47;23.10;;;10.10;;
57263;SDS011;43113;53.124;6.092;2022-12-01T16:10:28;24.92;;;10.02;;
57263;SDS011;43113;53.124;6.092;2022-12-01T16:15:58;22.60;;;10.40;;
57263;SDS011;43113;53.124;6.092;2022-12-01T16:18:27;23.38;;;9.48;;
57263;SDS011;43113;53.124;6.092;2022-12-01T16:21:02;26.08;;;9.93;;
57263;SDS011;43113;53.124;6.092;2022-12-01T16:23:29;18.40;;;9.02;;
57263;SDS011;43113;53.124;6.092;2022-12-01T16:25:57;20.65;;;9.73;;
57263;SDS011;43113;53.124;6.092;2022-12-01T16:28:30;20.67;;;8.82;;
57263;SDS011;43113;53.124;6.092;2022-12-01T16:31:02;20.05;;;8.50;;
57263;SDS011;43113;53.124;6.092;2022-12-01T16:33:29;19.88;;;8.82;;
57263;SDS011;43113;53.124;6.092;2022-12-01T16:35:58;23.08;;;9.18;;
57263;SDS011;43113;53.124;6.092;2022-12-01T16:38:25;25.75;;;9.70;;
57263;SDS011;43113;53.124;6.092;2022-12-01T16:40:57;26.00;;;10.68;;
57263;SDS011;43113;53.124;6.092;2022-12-01T16:43:24;24.98;;;9.57;;
57263;SDS011;43113;53.124;6.092;2022-12-01T16:45:59;29.55;;;11.05;;
57263;SDS011;43113;53.124;6.092;2022-12-01T16:48:27;27.35;;;10.45;;
57263;SDS011;43113;53.124;6.092;2022-12-01T16:50:53;23.92;;;10.27;;
57263;SDS011;43113;53.124;6.092;2022-12-01T16:53:19;27.35;;;11.32;;
57263;SDS011;43113;53.124;6.092;2022-12-01T16:55:46;26.60;;;11.88;;
57263;SDS011;43113;53.124;6.092;2022-12-01T16:58:17;24.13;;;10.15;;
57263;SDS011;43113;53.124;6.092;2022-12-01T17:00:43;27.73;;;12.73;;